createdAt,value
2022-12-23T00:01:05.568Z,99.17
2022-12-23T00:05:07.185Z,99.51
2022-12-23T00:09:09.842Z,99.84
2022-12-23T00:13:11.602Z,98.88
2022-12-23T00:17:22.128Z,98.89
2022-12-23T00:21:24.154Z,99.06
2022-12-23T00:25:27.112Z,99.01
2022-12-23T00:29:28.563Z,98.80
2022-12-23T00:33:30.699Z,99.31
2022-12-23T00:37:31.999Z,99.74
2022-12-23T00:41:35.071Z,99.52
2022-12-23T00:45:36.461Z,100.00
2022-12-23T00:49:38.003Z,100.00
2022-12-23T00:53:39.331Z,99.94
2022-12-23T00:57:42.025Z,99.64
2022-12-23T01:01:43.399Z,99.27
2022-12-23T01:05:44.772Z,99.29
2022-12-23T01:09:46.157Z,99.19
2022-12-23T01:13:48.818Z,99.64
2022-12-23T01:17:50.145Z,99.08
2022-12-23T01:21:51.533Z,98.94
2022-12-23T01:25:56.385Z,99.05
2022-12-23T01:29:59.040Z,98.96
2022-12-23T01:34:00.368Z,98.56
2022-12-23T01:38:01.820Z,98.44
2022-12-23T01:42:03.263Z,98.22
2022-12-23T01:46:06.022Z,99.05
2022-12-23T01:50:09.568Z,99.66
2022-12-23T01:54:10.893Z,99.29
2022-12-23T01:58:13.353Z,99.29
2022-12-23T02:02:16.168Z,98.87
2022-12-23T02:06:19.589Z,99.00
2022-12-23T02:10:23.194Z,99.20
2022-12-23T02:14:29.751Z,98.62
2022-12-23T02:18:38.217Z,98.24
2022-12-23T02:22:54.107Z,98.31
2022-12-23T02:27:15.096Z,98.01
2022-12-23T02:31:23.848Z,98.52
2022-12-23T02:35:29.406Z,99.06
2022-12-23T02:39:35.807Z,98.71
2022-12-23T02:43:42.030Z,98.87
2022-12-23T02:47:48.001Z,98.21
2022-12-23T02:51:50.810Z,98.94
2022-12-23T02:55:53.326Z,98.76
2022-12-23T02:59:55.847Z,98.35
2022-12-23T03:03:58.868Z,98.28
2022-12-23T03:08:02.444Z,98.74
2022-12-23T03:12:06.972Z,99.08
2022-12-23T03:16:11.829Z,99.09
2022-12-23T03:20:20.861Z,99.04
2022-12-23T03:24:25.086Z,98.57
2022-12-23T03:28:30.749Z,98.99
2022-12-23T03:32:35.256Z,99.02
2022-12-23T03:36:40.076Z,98.85
2022-12-23T03:40:43.512Z,98.48
2022-12-23T03:45:10.681Z,98.76
2022-12-23T03:49:09.236Z,98.92
2022-12-23T03:53:14.508Z,99.19
2022-12-23T03:57:16.185Z,99.29
2022-12-23T04:01:23.167Z,99.76
2022-12-23T04:05:26.548Z,99.35
2022-12-23T04:09:29.293Z,99.54
2022-12-23T04:13:31.111Z,99.01
2022-12-23T04:17:33.058Z,99.54
2022-12-23T04:21:34.383Z,100.00
2022-12-23T04:25:37.064Z,99.73
2022-12-23T04:29:38.372Z,99.91
2022-12-23T04:33:39.682Z,99.61
2022-12-23T04:37:41.025Z,100.00
2022-12-23T04:41:43.765Z,100.00
2022-12-23T04:45:49.418Z,100.00
2022-12-23T04:49:50.754Z,100.00
2022-12-23T04:53:52.109Z,100.00
2022-12-23T04:57:54.803Z,100.00
2022-12-23T05:01:56.212Z,100.00
2022-12-23T05:05:57.917Z,100.00
2022-12-23T05:09:59.226Z,100.00
2022-12-23T05:14:01.907Z,99.87
2022-12-23T05:18:03.418Z,100.00
2022-12-23T05:22:04.816Z,100.00
2022-12-23T05:26:06.261Z,100.00
2022-12-23T05:30:09.838Z,100.00
2022-12-23T05:34:11.226Z,100.00
2022-12-23T05:38:12.604Z,99.63
2022-12-23T05:42:13.976Z,99.95
2022-12-23T05:46:19.920Z,99.76
2022-12-23T05:50:25.778Z,100.00
2022-12-23T05:54:27.117Z,100.00
2022-12-23T05:58:28.480Z,99.34
2022-12-23T06:02:31.356Z,99.98
2022-12-23T06:06:32.850Z,100.00
2022-12-23T06:10:34.189Z,100.00
2022-12-23T06:14:35.548Z,99.95
2022-12-23T06:18:38.233Z,100.00
2022-12-23T06:22:39.550Z,100.00
2022-12-23T06:26:41.624Z,100.00
2022-12-23T06:30:43.009Z,100.00
2022-12-23T06:34:45.742Z,100.00
2022-12-23T06:38:47.123Z,100.00
2022-12-23T06:42:48.550Z,100.00
2022-12-23T06:46:49.985Z,100.00
2022-12-23T06:50:52.739Z,100.00
2022-12-23T06:54:54.089Z,100.00
2022-12-23T06:58:55.460Z,100.00
2022-12-23T07:02:56.851Z,100.00
2022-12-23T07:06:59.598Z,100.00
2022-12-23T07:11:01.510Z,100.00
2022-12-23T07:15:02.937Z,100.00
2022-12-23T07:19:04.361Z,100.00
2022-12-23T07:23:07.083Z,100.00
2022-12-23T07:27:08.418Z,100.00
2022-12-23T07:31:09.835Z,99.44
2022-12-23T07:35:11.222Z,99.42
2022-12-23T07:39:13.934Z,99.25
2022-12-23T07:43:15.337Z,98.77
2022-12-23T07:47:16.674Z,98.67
2022-12-23T07:51:18.043Z,96.93
2022-12-23T07:55:21.015Z,97.17
2022-12-23T07:59:24.885Z,97.26
2022-12-23T08:03:26.259Z,97.41
2022-12-23T08:07:27.646Z,97.89
2022-12-23T08:11:30.364Z,97.94
2022-12-23T08:15:31.698Z,97.70
2022-12-23T08:19:33.063Z,96.94
2022-12-23T08:23:34.433Z,95.93
2022-12-23T08:27:37.123Z,96.25
2022-12-23T08:31:38.470Z,96.51
2022-12-23T08:35:39.809Z,96.88
2022-12-23T08:39:41.139Z,97.46
2022-12-23T08:43:44.448Z,97.66
2022-12-23T08:47:45.787Z,97.54
2022-12-23T08:51:47.551Z,97.94
2022-12-23T08:55:48.929Z,97.63
2022-12-23T08:59:51.662Z,97.49
2022-12-23T09:03:53.491Z,97.54
2022-12-23T09:07:54.949Z,97.26
2022-12-23T09:11:56.305Z,96.89
2022-12-23T09:15:59.133Z,96.46
2022-12-23T09:20:00.540Z,96.60
2022-12-23T09:24:01.893Z,96.58
2022-12-23T09:28:03.478Z,96.34
2022-12-23T09:32:06.296Z,96.18
2022-12-23T09:36:07.974Z,96.45
2022-12-23T09:40:10.896Z,95.37
2022-12-23T09:44:23.160Z,96.35
2022-12-23T09:48:28.033Z,96.44
2022-12-23T09:52:36.266Z,96.55
2022-12-23T09:56:39.855Z,96.81
2022-12-23T10:00:43.704Z,96.91
2022-12-23T10:04:53.905Z,97.41
2022-12-23T10:08:58.393Z,97.27
2022-12-23T10:13:01.491Z,97.12
2022-12-23T10:17:07.757Z,97.00
2022-12-23T10:21:12.946Z,97.35
2022-12-23T10:25:15.608Z,97.54
2022-12-23T10:29:19.367Z,97.87
2022-12-23T10:33:22.239Z,97.12
2022-12-23T10:37:30.862Z,96.43
2022-12-23T10:41:35.349Z,96.62
2022-12-23T10:45:46.160Z,96.62
2022-12-23T10:49:56.266Z,96.84
2022-12-23T10:54:02.080Z,96.89
2022-12-23T10:58:06.021Z,97.73
2022-12-23T11:02:20.570Z,97.80
2022-12-23T11:06:22.392Z,97.67
2022-12-23T11:10:26.428Z,96.99
2022-12-23T11:14:35.367Z,96.71
2022-12-23T11:18:42.013Z,94.67
2022-12-23T11:22:47.275Z,93.84
2022-12-23T11:26:58.379Z,92.51
2022-12-23T11:31:02.957Z,92.52
2022-12-23T11:35:04.678Z,92.88
2022-12-23T11:39:07.723Z,93.14
2022-12-23T11:43:14.770Z,92.27
2022-12-23T11:47:23.979Z,92.01
2022-12-23T11:51:25.853Z,92.20
2022-12-23T11:55:28.235Z,91.88
2022-12-23T11:59:33.210Z,92.23
2022-12-23T12:03:35.669Z,93.03
2022-12-23T12:07:41.476Z,93.75
2022-12-23T12:11:45.037Z,94.76
2022-12-23T12:15:53.374Z,94.45
2022-12-23T12:19:59.696Z,94.99
2022-12-23T12:24:18.353Z,94.75
2022-12-23T12:28:22.841Z,95.54
2022-12-23T12:32:29.453Z,95.35
2022-12-23T12:36:37.372Z,96.00
2022-12-23T12:40:40.880Z,95.82
2022-12-23T12:44:46.044Z,95.48
2022-12-23T12:48:51.548Z,96.81
2022-12-23T12:52:53.880Z,96.62
2022-12-23T12:56:56.306Z,96.65
2022-12-23T13:01:03.572Z,96.28
2022-12-23T13:05:32.351Z,96.36
2022-12-23T13:09:41.384Z,96.09
2022-12-23T13:13:49.220Z,96.05
2022-12-23T13:18:01.802Z,95.60
2022-12-23T13:22:08.498Z,96.42
2022-12-23T13:26:14.043Z,96.30
2022-12-23T13:30:16.481Z,97.04
2022-12-23T13:34:24.816Z,97.55
2022-12-23T13:38:34.549Z,97.49
2022-12-23T13:42:39.737Z,97.64
2022-12-23T13:46:46.237Z,97.40
2022-12-23T13:50:50.749Z,97.29
2022-12-23T13:54:59.640Z,97.58
2022-12-23T13:59:01.422Z,97.98
2022-12-23T14:03:20.537Z,97.86
2022-12-23T14:07:22.738Z,98.06
2022-12-23T14:11:26.467Z,97.77
2022-12-23T14:15:34.981Z,97.94
2022-12-23T14:19:43.657Z,98.09
2022-12-23T14:23:50.975Z,98.10
2022-12-23T14:27:58.573Z,98.25
2022-12-23T14:32:00.007Z,99.07
2022-12-23T14:36:15.068Z,99.06
2022-12-23T14:40:50.006Z,99.02
2022-12-23T14:44:52.754Z,99.40
2022-12-23T14:49:45.406Z,99.23
2022-12-23T14:54:01.159Z,100.00
2022-12-23T14:58:08.903Z,100.00
2022-12-23T15:02:15.893Z,100.00
2022-12-23T15:06:19.309Z,100.00
2022-12-23T15:10:22.495Z,100.00
2022-12-23T15:14:30.117Z,100.00
2022-12-23T15:18:31.456Z,100.00
2022-12-23T15:22:32.925Z,100.00
2022-12-23T15:26:35.281Z,100.00
2022-12-23T15:30:47.115Z,100.00
2022-12-23T15:34:51.172Z,100.00
2022-12-23T15:38:52.751Z,100.00
2022-12-23T15:42:54.597Z,100.00
2022-12-23T15:46:57.376Z,100.00
2022-12-23T15:51:01.615Z,100.00
2022-12-23T15:55:12.350Z,100.00
2022-12-23T15:59:17.412Z,100.00
2022-12-23T16:03:23.827Z,100.00
2022-12-23T16:07:26.364Z,100.00
2022-12-23T16:11:41.890Z,100.00
2022-12-23T16:15:43.444Z,100.00
2022-12-23T16:19:46.917Z,100.00
2022-12-23T16:23:50.052Z,100.00
2022-12-23T16:27:55.320Z,100.00
2022-12-23T16:32:01.522Z,100.00
2022-12-23T16:36:18.504Z,100.00
2022-12-23T16:40:19.892Z,100.00
2022-12-23T16:44:21.264Z,100.00
2022-12-23T16:48:28.007Z,100.00
2022-12-23T16:52:30.735Z,100.00
2022-12-23T16:56:33.957Z,100.00
2022-12-23T17:00:37.001Z,100.00
2022-12-23T17:04:38.591Z,100.00
2022-12-23T17:08:41.346Z,100.00
2022-12-23T17:12:43.611Z,100.00
2022-12-23T17:16:45.103Z,100.00
2022-12-23T17:20:47.329Z,100.00
2022-12-23T17:24:50.135Z,100.00
2022-12-23T17:28:51.498Z,100.00
2022-12-23T17:32:55.858Z,100.00
2022-12-23T17:36:57.296Z,100.00
2022-12-23T17:41:00.074Z,100.00
2022-12-23T17:45:01.529Z,100.00
2022-12-23T17:49:02.920Z,100.00
2022-12-23T17:53:04.325Z,100.00
2022-12-23T17:57:14.338Z,100.00
2022-12-23T18:01:17.036Z,100.00
2022-12-23T18:05:20.920Z,100.00
2022-12-23T18:09:22.304Z,100.00
2022-12-23T18:13:25.089Z,100.00
2022-12-23T18:17:26.449Z,100.00
2022-12-23T18:21:28.442Z,100.00
2022-12-23T18:25:29.811Z,100.00
2022-12-23T18:29:32.527Z,100.00
2022-12-23T18:33:33.921Z,100.00
2022-12-23T18:37:35.264Z,100.00
2022-12-23T18:41:36.635Z,100.00
2022-12-23T18:45:40.208Z,100.00
2022-12-23T18:49:41.764Z,100.00
2022-12-23T18:53:43.170Z,100.00
2022-12-23T18:57:44.545Z,100.00
2022-12-23T19:01:47.429Z,100.00
2022-12-23T19:05:49.306Z,100.00
2022-12-23T19:09:50.675Z,100.00
2022-12-23T19:13:52.041Z,100.00
2022-12-23T19:17:54.758Z,99.66
2022-12-23T19:21:56.104Z,100.00
2022-12-23T19:25:57.508Z,99.63
2022-12-23T19:29:58.866Z,99.43
2022-12-23T19:34:01.624Z,99.23
2022-12-23T19:38:03.015Z,99.23
2022-12-23T19:42:04.385Z,98.81
2022-12-23T19:46:07.403Z,98.83
2022-12-23T19:50:11.340Z,98.88
2022-12-23T19:54:12.688Z,99.05
2022-12-23T19:58:14.043Z,98.68
2022-12-23T20:02:15.816Z,98.43
2022-12-23T20:06:19.856Z,98.16
2022-12-23T20:10:21.249Z,97.84
2022-12-23T20:14:22.597Z,97.88
2022-12-23T20:18:24.111Z,97.71
2022-12-23T20:22:26.836Z,97.09
2022-12-23T20:26:28.216Z,96.73
2022-12-23T20:30:29.587Z,96.50
2022-12-23T20:34:38.430Z,96.31
2022-12-23T20:38:43.036Z,96.65
2022-12-23T20:42:44.732Z,96.36
2022-12-23T20:46:46.166Z,96.10
2022-12-23T20:50:47.665Z,95.77
2022-12-23T20:54:50.400Z,95.82
2022-12-23T20:58:51.764Z,95.29
2022-12-23T21:02:53.167Z,95.45
2022-12-23T21:06:54.687Z,95.44
2022-12-23T21:10:57.711Z,95.37
2022-12-23T21:14:59.093Z,95.66
2022-12-23T21:19:00.638Z,95.02
2022-12-23T21:23:01.990Z,95.29
2022-12-23T21:27:04.731Z,95.14
2022-12-23T21:31:06.444Z,95.29
2022-12-23T21:35:08.362Z,95.42
2022-12-23T21:39:13.125Z,96.00
2022-12-23T21:43:15.852Z,95.64
2022-12-23T21:47:17.323Z,94.66
2022-12-23T21:51:20.319Z,94.42
2022-12-23T21:55:21.677Z,93.69
2022-12-23T21:59:29.653Z,94.46
2022-12-23T22:03:34.323Z,94.16
2022-12-23T22:07:35.698Z,94.00
2022-12-23T22:11:37.623Z,93.88
2022-12-23T22:15:41.328Z,94.13
2022-12-23T22:19:42.662Z,94.00
2022-12-23T22:23:44.031Z,93.97
2022-12-23T22:27:45.439Z,94.00
2022-12-23T22:31:48.789Z,92.62
2022-12-23T22:35:53.594Z,92.87
2022-12-23T22:39:54.984Z,93.05
2022-12-23T22:43:56.670Z,93.15
2022-12-23T22:47:59.488Z,93.33
2022-12-23T22:52:00.834Z,93.00
2022-12-23T22:56:02.889Z,92.89
2022-12-23T23:00:11.573Z,92.14
2022-12-23T23:04:15.168Z,91.19
2022-12-23T23:08:16.515Z,90.37
2022-12-23T23:12:17.964Z,90.92
2022-12-23T23:16:19.377Z,90.55
2022-12-23T23:20:22.128Z,90.49
2022-12-23T23:24:29.344Z,90.13
2022-12-23T23:28:32.575Z,90.75
2022-12-23T23:32:34.097Z,90.56
2022-12-23T23:36:37.000Z,89.94
2022-12-23T23:40:38.351Z,90.39
2022-12-23T23:44:39.793Z,90.40
2022-12-23T23:48:42.916Z,90.26
2022-12-23T23:52:45.662Z,89.44
2022-12-23T23:56:47.010Z,88.97
